createdAt,value
2022-10-05T00:00:59.117Z,7.72
2022-10-05T00:03:11.556Z,7.74
2022-10-05T00:05:22.196Z,7.72
2022-10-05T00:07:25.451Z,7.69
2022-10-05T00:09:31.956Z,7.69
2022-10-05T00:11:34.677Z,7.69
2022-10-05T00:13:37.405Z,7.70
2022-10-05T00:15:40.161Z,7.68
2022-10-05T00:17:43.212Z,7.70
2022-10-05T00:19:46.900Z,7.70
2022-10-05T00:21:49.753Z,7.70
2022-10-05T00:23:55.979Z,7.66
2022-10-05T00:26:18.692Z,7.70
2022-10-05T00:28:30.561Z,7.65
2022-10-05T00:30:34.297Z,7.66
2022-10-05T00:32:37.508Z,7.63
2022-10-05T00:34:41.443Z,7.64
2022-10-05T00:36:45.853Z,7.65
2022-10-05T00:38:48.831Z,7.68
2022-10-05T00:40:51.553Z,7.70
2022-10-05T00:43:30.997Z,7.71
2022-10-05T00:45:48.598Z,7.76
2022-10-05T00:48:10.040Z,7.71
2022-10-05T00:50:35.860Z,7.70
2022-10-05T00:52:57.075Z,7.66
2022-10-05T00:55:11.052Z,7.65
2022-10-05T00:57:19.816Z,7.63
2022-10-05T00:59:31.355Z,7.64
2022-10-05T01:01:44.060Z,7.60
2022-10-05T01:03:56.284Z,7.62
2022-10-05T01:06:05.109Z,7.64
2022-10-05T01:08:19.638Z,7.62
2022-10-05T01:10:43.942Z,7.62
2022-10-05T01:12:55.478Z,7.63
2022-10-05T01:15:16.363Z,7.62
2022-10-05T01:17:27.888Z,7.63
2022-10-05T01:19:39.173Z,7.70
2022-10-05T01:22:09.341Z,7.68
2022-10-05T01:24:38.932Z,7.63
2022-10-05T01:26:53.579Z,7.65
2022-10-05T01:29:06.615Z,7.67
2022-10-05T01:31:42.770Z,7.70
2022-10-05T01:33:54.586Z,7.72
2022-10-05T01:36:19.862Z,7.72
2022-10-05T01:38:57.310Z,7.72
2022-10-05T01:41:36.130Z,7.71
2022-10-05T01:43:52.690Z,7.69
2022-10-05T01:46:38.499Z,7.71
2022-10-05T01:49:38.680Z,7.71
2022-10-05T01:52:04.408Z,7.70
2022-10-05T01:54:39.298Z,7.70
2022-10-05T01:57:21.074Z,7.71
2022-10-05T01:59:31.656Z,7.70
2022-10-05T02:01:48.970Z,7.74
2022-10-05T02:04:07.746Z,7.79
2022-10-05T02:06:17.706Z,7.81
2022-10-05T02:08:31.815Z,7.82
2022-10-05T02:10:42.601Z,7.78
2022-10-05T02:12:49.180Z,7.84
2022-10-05T02:14:56.919Z,7.86
2022-10-05T02:17:05.861Z,7.88
2022-10-05T02:19:14.748Z,7.88
2022-10-05T02:21:19.130Z,7.90
2022-10-05T02:23:26.134Z,7.92
2022-10-05T02:25:36.946Z,7.93
2022-10-05T02:27:52.993Z,7.98
2022-10-05T02:30:03.273Z,7.90
2022-10-05T02:32:24.217Z,7.92
2022-10-05T02:34:41.465Z,8.01
2022-10-05T02:36:46.054Z,8.04
2022-10-05T02:39:09.441Z,8.05
2022-10-05T02:41:24.363Z,8.03
2022-10-05T02:44:11.533Z,8.06
2022-10-05T02:46:41.835Z,8.13
2022-10-05T02:48:44.458Z,8.16
2022-10-05T02:50:59.368Z,8.16
2022-10-05T02:53:20.042Z,8.15
2022-10-05T02:55:31.204Z,8.13
2022-10-05T02:57:42.529Z,8.09
2022-10-05T02:59:51.423Z,8.01
2022-10-05T03:02:08.318Z,8.01
2022-10-05T03:04:38.405Z,7.92
2022-10-05T03:06:58.845Z,7.87
2022-10-05T03:09:07.929Z,7.85
2022-10-05T03:11:38.384Z,7.81
2022-10-05T03:13:49.871Z,7.63
2022-10-05T03:16:07.691Z,7.65
2022-10-05T03:18:37.930Z,7.61
2022-10-05T03:20:51.001Z,7.57
2022-10-05T03:23:00.904Z,7.56
2022-10-05T03:25:29.223Z,7.53
2022-10-05T03:27:53.458Z,7.56
2022-10-05T03:30:16.749Z,7.55
2022-10-05T03:32:31.677Z,7.52
2022-10-05T03:35:03.083Z,7.49
2022-10-05T03:37:23.294Z,7.50
2022-10-05T03:39:31.647Z,7.51
2022-10-05T03:41:41.814Z,7.49
2022-10-05T03:44:04.781Z,7.51
2022-10-05T03:46:26.259Z,7.46
2022-10-05T03:49:08.004Z,7.49
2022-10-05T03:51:28.949Z,7.44
2022-10-05T03:53:42.702Z,7.44
2022-10-05T03:55:51.227Z,7.39
2022-10-05T03:57:58.313Z,7.37
2022-10-05T04:00:26.158Z,7.34
2022-10-05T04:02:37.461Z,7.33
2022-10-05T04:05:17.919Z,7.30
2022-10-05T04:07:34.245Z,7.31
2022-10-05T04:09:48.322Z,7.32
2022-10-05T04:11:51.124Z,7.35
2022-10-05T04:14:15.723Z,7.37
2022-10-05T04:16:46.048Z,7.36
2022-10-05T04:18:56.741Z,7.31
2022-10-05T04:21:06.929Z,7.31
2022-10-05T04:24:04.756Z,7.35
2022-10-05T04:26:23.233Z,7.36
2022-10-05T04:28:49.827Z,7.37
2022-10-05T04:30:54.377Z,7.34
2022-10-05T04:32:59.810Z,7.36
2022-10-05T04:35:30.965Z,7.35
2022-10-05T04:38:03.892Z,7.35
2022-10-05T04:40:40.443Z,7.35
2022-10-05T04:43:12.351Z,7.36
2022-10-05T04:45:20.949Z,7.38
2022-10-05T04:47:58.787Z,7.41
2022-10-05T04:50:19.049Z,7.45
2022-10-05T04:52:36.743Z,7.49
2022-10-05T04:54:45.025Z,7.46
2022-10-05T04:56:58.737Z,7.46
2022-10-05T04:59:38.733Z,7.50
2022-10-05T05:01:56.207Z,7.50
2022-10-05T05:04:16.739Z,7.51
2022-10-05T05:06:30.298Z,7.54
2022-10-05T05:08:42.309Z,7.54
2022-10-05T05:10:54.811Z,7.53
2022-10-05T05:13:15.788Z,7.51
2022-10-05T05:15:30.623Z,7.54
2022-10-05T05:17:33.213Z,7.61
2022-10-05T05:19:42.290Z,7.70
2022-10-05T05:22:04.040Z,7.80
2022-10-05T05:24:27.652Z,7.83
2022-10-05T05:27:20.809Z,7.87
2022-10-05T05:29:32.277Z,7.94
2022-10-05T05:31:47.460Z,7.99
2022-10-05T05:34:20.125Z,8.02
2022-10-05T05:36:32.037Z,8.07
2022-10-05T05:38:58.401Z,8.09
2022-10-05T05:41:01.008Z,8.09
2022-10-05T05:43:26.994Z,8.10
2022-10-05T05:45:50.238Z,8.07
2022-10-05T05:47:55.315Z,8.08
2022-10-05T05:50:13.039Z,8.16
2022-10-05T05:52:29.068Z,8.15
2022-10-05T05:54:38.784Z,8.14
2022-10-05T05:57:20.755Z,8.20
2022-10-05T06:00:00.914Z,8.15
2022-10-05T06:02:12.127Z,8.15
2022-10-05T06:04:31.699Z,8.16
2022-10-05T06:06:38.936Z,8.19
2022-10-05T06:08:44.778Z,8.18
2022-10-05T06:10:59.507Z,8.10
2022-10-05T06:13:11.402Z,8.16
2022-10-05T06:15:32.733Z,8.20
2022-10-05T06:17:45.522Z,8.08
2022-10-05T06:19:50.859Z,8.04
2022-10-05T06:22:22.555Z,8.03
2022-10-05T06:24:47.679Z,8.05
2022-10-05T06:27:25.703Z,8.12
2022-10-05T06:29:58.667Z,8.12
2022-10-05T06:32:21.660Z,8.25
2022-10-05T06:34:27.235Z,8.30
2022-10-05T06:36:48.187Z,8.34
2022-10-05T06:39:02.426Z,8.41
2022-10-05T06:41:19.249Z,8.44
2022-10-05T06:43:30.993Z,8.46
2022-10-05T06:45:54.908Z,8.57
2022-10-05T06:48:26.901Z,8.68
2022-10-05T06:50:53.062Z,8.77
2022-10-05T06:53:04.527Z,8.98
2022-10-05T06:55:14.780Z,8.92
2022-10-05T06:57:45.318Z,9.04
2022-10-05T07:00:06.200Z,8.99
2022-10-05T07:02:26.162Z,9.11
2022-10-05T07:05:03.771Z,9.12
2022-10-05T07:07:15.176Z,9.12
2022-10-05T07:09:53.498Z,9.20
2022-10-05T07:12:30.546Z,9.18
2022-10-05T07:14:41.354Z,9.13
2022-10-05T07:16:50.063Z,9.10
2022-10-05T07:19:07.126Z,9.08
2022-10-05T07:21:22.859Z,9.14
2022-10-05T07:23:25.521Z,9.21
2022-10-05T07:25:35.978Z,9.28
2022-10-05T07:28:03.192Z,9.34
2022-10-05T07:30:12.777Z,9.44
2022-10-05T07:32:40.129Z,9.49
2022-10-05T07:35:37.079Z,9.53
2022-10-05T07:37:58.124Z,9.60
2022-10-05T07:40:18.287Z,9.59
2022-10-05T07:42:53.297Z,9.65
2022-10-05T07:45:13.437Z,9.78
2022-10-05T07:47:28.848Z,9.89
2022-10-05T07:49:47.482Z,10.10
2022-10-05T07:51:58.762Z,10.29
2022-10-05T07:54:09.395Z,10.42
2022-10-05T07:56:28.188Z,10.51
2022-10-05T07:58:46.771Z,10.62
2022-10-05T08:01:09.877Z,10.68
2022-10-05T08:03:26.237Z,10.73
2022-10-05T08:05:32.342Z,10.83
2022-10-05T08:07:36.985Z,10.94
2022-10-05T08:10:01.433Z,11.09
2022-10-05T08:12:25.212Z,11.29
2022-10-05T08:14:49.911Z,11.51
2022-10-05T08:16:56.154Z,11.72
2022-10-05T08:19:43.575Z,11.92
2022-10-05T08:22:03.194Z,11.83
2022-10-05T08:24:37.580Z,11.77
2022-10-05T08:26:55.519Z,11.73
2022-10-05T08:29:37.991Z,11.77
2022-10-05T08:31:49.270Z,11.63
2022-10-05T08:33:58.885Z,11.67
2022-10-05T08:36:11.137Z,11.71
2022-10-05T08:38:21.654Z,11.59
2022-10-05T08:40:43.031Z,11.53
2022-10-05T08:43:22.782Z,11.45
2022-10-05T08:45:49.877Z,11.50
2022-10-05T08:48:20.085Z,11.52
2022-10-05T08:50:34.109Z,11.58
2022-10-05T08:53:12.545Z,11.58
2022-10-05T08:55:30.008Z,11.53
2022-10-05T08:57:35.369Z,11.55
2022-10-05T08:59:54.049Z,11.60
2022-10-05T09:02:20.147Z,11.77
2022-10-05T09:04:34.495Z,11.93
2022-10-05T09:07:08.034Z,12.06
2022-10-05T09:09:25.758Z,12.16
2022-10-05T09:11:41.810Z,12.30
2022-10-05T09:14:02.651Z,12.48
2022-10-05T09:16:35.748Z,12.42
2022-10-05T09:19:03.385Z,12.40
2022-10-05T09:21:11.913Z,12.39
2022-10-05T09:23:43.042Z,12.32
2022-10-05T09:25:58.977Z,12.33
2022-10-05T09:28:17.340Z,12.23
2022-10-05T09:30:46.357Z,12.28
2022-10-05T09:33:16.798Z,12.35
2022-10-05T09:35:38.193Z,12.35
2022-10-05T09:37:58.709Z,12.29
2022-10-05T09:40:19.839Z,12.27
2022-10-05T09:43:11.366Z,12.27
2022-10-05T09:45:38.806Z,12.16
2022-10-05T09:48:08.019Z,12.10
2022-10-05T09:50:31.827Z,12.12
2022-10-05T09:53:01.675Z,12.12
2022-10-05T09:55:35.815Z,12.12
2022-10-05T09:57:57.350Z,12.08
2022-10-05T10:00:21.015Z,12.00
2022-10-05T10:03:11.686Z,12.00
2022-10-05T10:05:27.348Z,11.95
2022-10-05T10:07:36.004Z,11.99
2022-10-05T10:10:20.144Z,12.13
2022-10-05T10:12:37.798Z,12.16
2022-10-05T10:15:05.395Z,12.19
2022-10-05T10:17:20.097Z,12.17
2022-10-05T10:19:50.343Z,12.21
2022-10-05T10:22:37.622Z,12.21
2022-10-05T10:24:46.140Z,12.33
2022-10-05T10:27:06.703Z,12.37
2022-10-05T10:29:15.434Z,12.39
2022-10-05T10:31:29.413Z,12.47
2022-10-05T10:34:07.106Z,12.50
2022-10-05T10:36:27.906Z,12.67
2022-10-05T10:38:40.487Z,12.71
2022-10-05T10:41:34.798Z,12.65
2022-10-05T10:44:08.482Z,12.74
2022-10-05T10:46:49.526Z,12.86
2022-10-05T10:49:37.208Z,13.17
2022-10-05T10:55:33.794Z,13.25
2022-10-05T10:58:01.101Z,13.35
2022-10-05T11:00:28.441Z,13.50
2022-10-05T11:02:57.653Z,13.64
2022-10-05T11:05:30.403Z,13.64
2022-10-05T11:08:04.216Z,13.72
2022-10-05T11:10:44.362Z,13.71
2022-10-05T11:13:03.635Z,13.65
2022-10-05T11:15:17.854Z,13.61
2022-10-05T11:17:38.783Z,13.69
2022-10-05T11:20:03.661Z,13.73
2022-10-05T11:22:45.001Z,13.67
2022-10-05T11:25:43.028Z,13.61
2022-10-05T11:28:16.535Z,13.49
2022-10-05T11:30:37.215Z,13.36
2022-10-05T11:32:42.583Z,13.24
2022-10-05T11:35:12.904Z,13.10
2022-10-05T11:37:21.532Z,13.07
2022-10-05T11:39:59.957Z,13.05
2022-10-05T11:42:33.455Z,13.02
2022-10-05T11:44:57.806Z,12.97
2022-10-05T11:47:15.499Z,12.93
2022-10-05T11:49:36.514Z,12.88
2022-10-05T11:52:19.173Z,12.83
2022-10-05T11:54:58.637Z,12.80
2022-10-05T11:57:16.039Z,12.74
2022-10-05T11:59:27.225Z,12.66
2022-10-05T12:02:02.669Z,12.64
2022-10-05T12:04:29.524Z,12.59
2022-10-05T12:06:38.070Z,12.58
2022-10-05T12:08:58.926Z,12.55
2022-10-05T12:11:26.258Z,12.53
2022-10-05T12:13:40.743Z,12.51
2022-10-05T12:15:55.775Z,12.45
2022-10-05T12:18:09.209Z,12.40
2022-10-05T12:20:32.255Z,12.39
2022-10-05T12:22:37.943Z,12.40
2022-10-05T12:25:08.313Z,12.37
2022-10-05T12:27:33.826Z,12.38
2022-10-05T12:29:41.213Z,12.37
2022-10-05T12:31:46.729Z,12.35
2022-10-05T12:34:31.427Z,12.36
2022-10-05T12:37:03.485Z,12.32
2022-10-05T12:39:26.846Z,12.29
2022-10-05T12:41:47.387Z,12.32
2022-10-05T12:44:25.511Z,12.22
2022-10-05T12:46:53.983Z,12.31
2022-10-05T12:49:27.100Z,12.27
2022-10-05T12:51:44.575Z,12.26
2022-10-05T12:53:57.943Z,12.27
2022-10-05T12:56:37.964Z,12.29
2022-10-05T12:59:14.611Z,12.25
2022-10-05T13:01:44.819Z,12.21
2022-10-05T13:03:57.984Z,12.18
2022-10-05T13:06:23.728Z,12.19
2022-10-05T13:08:29.528Z,12.15
2022-10-05T13:11:04.086Z,12.10
2022-10-05T13:13:09.737Z,12.04
2022-10-05T13:15:50.658Z,12.02
2022-10-05T13:18:25.446Z,11.93
2022-10-05T13:20:45.855Z,11.87
2022-10-05T13:23:02.490Z,11.75
2022-10-05T13:25:17.773Z,11.73
2022-10-05T13:27:51.284Z,11.73
2022-10-05T13:29:59.701Z,11.73
2022-10-05T13:32:23.527Z,11.72
2022-10-05T13:34:43.830Z,11.72
2022-10-05T13:37:08.068Z,11.72
2022-10-05T13:39:46.103Z,11.69
2022-10-05T13:41:59.822Z,11.65
2022-10-05T13:44:50.296Z,11.67
2022-10-05T13:47:22.557Z,11.66
2022-10-05T13:49:39.107Z,11.67
2022-10-05T13:52:16.773Z,11.62
2022-10-05T13:54:38.129Z,11.61
2022-10-05T13:56:46.021Z,11.61
2022-10-05T13:58:59.776Z,11.60
2022-10-05T14:01:08.025Z,11.60
2022-10-05T14:03:32.597Z,11.59
2022-10-05T14:05:37.839Z,11.59
2022-10-05T14:07:51.698Z,11.60
2022-10-05T14:09:54.435Z,11.62
2022-10-05T14:12:05.768Z,11.59
2022-10-05T14:14:10.991Z,11.58
2022-10-05T14:16:13.836Z,11.57
2022-10-05T14:18:28.546Z,11.57
2022-10-05T14:20:34.498Z,11.54
2022-10-05T14:22:42.764Z,11.52
2022-10-05T14:24:54.313Z,11.52
2022-10-05T14:26:58.974Z,11.51
2022-10-05T14:29:19.559Z,11.51
2022-10-05T14:31:32.081Z,11.47
2022-10-05T14:33:35.873Z,11.47
2022-10-05T14:35:53.763Z,11.41
2022-10-05T14:38:02.682Z,11.44
2022-10-05T14:40:22.122Z,11.48
2022-10-05T14:42:29.083Z,11.46
2022-10-05T14:46:37.591Z,11.42
2022-10-05T14:48:45.255Z,11.39
2022-10-05T14:51:04.454Z,11.41
2022-10-05T14:53:17.796Z,11.38
2022-10-05T14:55:42.996Z,11.39
2022-10-05T14:58:02.446Z,11.35
2022-10-05T15:00:12.674Z,11.30
2022-10-05T15:02:59.859Z,11.33
2022-10-05T15:05:19.251Z,11.30
2022-10-05T15:07:31.195Z,11.29
2022-10-05T15:10:07.733Z,11.29
2022-10-05T15:12:14.325Z,11.28
2022-10-05T15:14:30.543Z,11.25
2022-10-05T15:16:38.502Z,11.21
2022-10-05T15:18:54.845Z,11.19
2022-10-05T15:21:23.952Z,11.09
2022-10-05T15:23:32.171Z,10.97
2022-10-05T15:25:49.189Z,10.90
2022-10-05T15:27:58.410Z,10.81
2022-10-05T15:30:04.751Z,10.79
2022-10-05T15:32:48.757Z,10.71
2022-10-05T15:35:16.134Z,10.62
2022-10-05T15:37:44.985Z,10.52
2022-10-05T15:39:53.372Z,10.52
2022-10-05T15:42:14.837Z,10.45
2022-10-05T15:44:20.369Z,10.34
2022-10-05T15:46:34.650Z,10.32
2022-10-05T15:48:50.124Z,10.26
2022-10-05T15:51:15.966Z,10.22
2022-10-05T15:53:28.629Z,10.16
2022-10-05T15:56:03.522Z,10.12
2022-10-05T15:58:31.464Z,10.05
2022-10-05T16:00:40.806Z,10.01
2022-10-05T16:02:52.403Z,9.99
2022-10-05T16:05:44.545Z,9.96
2022-10-05T16:08:11.244Z,9.91
2022-10-05T16:10:17.673Z,9.87
2022-10-05T16:12:28.937Z,9.84
2022-10-05T16:15:16.776Z,9.80
2022-10-05T16:17:34.581Z,9.73
2022-10-05T16:20:03.349Z,9.69
2022-10-05T16:22:24.618Z,9.69
2022-10-05T16:24:49.463Z,9.67
2022-10-05T16:27:01.302Z,9.66
2022-10-05T16:29:33.174Z,9.66
2022-10-05T16:31:48.156Z,9.64
2022-10-05T16:34:17.394Z,9.66
2022-10-05T16:37:02.429Z,9.64
2022-10-05T16:39:14.202Z,9.60
2022-10-05T16:41:35.197Z,9.60
2022-10-05T16:43:49.631Z,9.58
2022-10-05T16:46:27.894Z,9.60
2022-10-05T16:49:03.353Z,9.57
2022-10-05T16:51:42.968Z,9.57
2022-10-05T16:53:59.394Z,9.62
2022-10-05T16:56:16.625Z,9.72
2022-10-05T16:58:47.461Z,9.80
2022-10-05T17:00:59.282Z,9.86
2022-10-05T17:03:11.457Z,9.91
2022-10-05T17:05:47.770Z,9.93
2022-10-05T17:08:15.318Z,9.98
2022-10-05T17:10:38.854Z,10.04
2022-10-05T17:13:07.883Z,10.11
2022-10-05T17:15:32.192Z,10.18
2022-10-05T17:17:57.895Z,10.22
2022-10-05T17:20:00.561Z,10.26
2022-10-05T17:22:23.597Z,10.26
2022-10-05T17:24:50.809Z,10.31
2022-10-05T17:27:19.634Z,10.36
2022-10-05T17:29:30.764Z,10.36
2022-10-05T17:32:12.045Z,10.40
2022-10-05T17:34:17.426Z,10.41
2022-10-05T17:36:20.224Z,10.44
2022-10-05T17:38:31.910Z,10.47
2022-10-05T17:40:41.389Z,10.50
2022-10-05T17:42:46.597Z,10.50
2022-10-05T17:44:49.406Z,10.53
2022-10-05T17:46:55.334Z,10.54
2022-10-05T17:49:16.484Z,10.55
2022-10-05T17:51:46.747Z,10.56
2022-10-05T17:54:08.508Z,10.54
2022-10-05T17:56:11.210Z,10.52
2022-10-05T17:58:27.899Z,10.53
2022-10-05T18:00:40.584Z,10.51
2022-10-05T18:02:43.599Z,10.53
2022-10-05T18:05:12.991Z,10.55
2022-10-05T18:07:20.989Z,10.52
2022-10-05T18:09:23.677Z,10.53
2022-10-05T18:11:29.269Z,10.52
2022-10-05T18:13:45.835Z,10.52
2022-10-05T18:15:49.835Z,10.53
2022-10-05T18:18:34.818Z,10.55
2022-10-05T18:20:40.044Z,10.39
2022-10-05T18:22:46.585Z,10.52
2022-10-05T18:24:56.037Z,10.53
2022-10-05T18:27:30.811Z,10.57
2022-10-05T18:30:05.975Z,10.57
2022-10-05T18:32:24.797Z,10.56
2022-10-05T18:34:36.463Z,10.52
2022-10-05T18:36:58.347Z,10.50
2022-10-05T18:39:21.727Z,10.50
2022-10-05T18:41:51.717Z,10.52
2022-10-05T18:44:00.994Z,10.47
2022-10-05T18:46:09.711Z,10.48
2022-10-05T18:48:39.269Z,10.46
2022-10-05T18:51:07.855Z,10.45
2022-10-05T18:53:39.219Z,10.45
2022-10-05T18:55:53.802Z,10.41
2022-10-05T18:58:15.063Z,10.41
2022-10-05T19:00:23.721Z,10.41
2022-10-05T19:02:34.928Z,10.39
2022-10-05T19:05:00.091Z,10.35
2022-10-05T19:07:24.177Z,10.34
2022-10-05T19:09:45.300Z,10.25
2022-10-05T19:11:53.768Z,10.27
2022-10-05T19:14:37.487Z,10.27
2022-10-05T19:17:04.768Z,10.18
2022-10-05T19:19:33.485Z,10.24
2022-10-05T19:22:01.423Z,10.21
2022-10-05T19:24:26.935Z,10.18
2022-10-05T19:26:38.163Z,10.14
2022-10-05T19:29:07.419Z,10.13
2022-10-05T19:31:13.663Z,10.11
2022-10-05T19:33:52.290Z,10.08
2022-10-05T19:36:16.264Z,10.08
2022-10-05T19:38:32.383Z,10.08
2022-10-05T19:40:43.294Z,10.04
2022-10-05T19:43:15.683Z,10.05
2022-10-05T19:45:23.420Z,10.08
2022-10-05T19:47:41.258Z,10.08
2022-10-05T19:49:49.927Z,10.12
2022-10-05T19:51:58.663Z,10.13
2022-10-05T19:54:27.186Z,10.09
2022-10-05T19:56:34.653Z,10.09
2022-10-05T19:58:40.396Z,10.09
2022-10-05T20:00:45.950Z,10.08
2022-10-05T20:02:51.052Z,10.03
2022-10-05T20:04:55.373Z,9.96
2022-10-05T20:06:59.677Z,9.92
2022-10-05T20:09:20.231Z,9.90
2022-10-05T20:11:27.377Z,9.88
2022-10-05T20:13:33.819Z,9.88
2022-10-05T20:15:55.428Z,9.92
2022-10-05T20:18:16.646Z,9.95
2022-10-05T20:20:34.612Z,9.97
2022-10-05T20:22:48.709Z,10.00
2022-10-05T20:24:54.185Z,10.00
2022-10-05T20:27:13.867Z,10.03
2022-10-05T20:29:18.598Z,10.06
2022-10-05T20:31:21.675Z,10.06
2022-10-05T20:33:29.631Z,10.08
2022-10-05T20:35:32.463Z,10.09
2022-10-05T20:37:37.005Z,10.12
2022-10-05T20:39:40.656Z,10.16
2022-10-05T20:41:46.392Z,10.13
2022-10-05T20:43:49.419Z,10.21
2022-10-05T20:45:54.126Z,10.23
2022-10-05T20:47:57.107Z,10.28
2022-10-05T20:50:00.325Z,10.30
2022-10-05T20:52:10.731Z,10.28
2022-10-05T20:54:13.502Z,10.31
2022-10-05T20:56:16.294Z,10.32
2022-10-05T20:58:19.465Z,10.31
2022-10-05T21:00:22.280Z,10.34
2022-10-05T21:02:25.050Z,10.38
2022-10-05T21:04:42.907Z,10.36
2022-10-05T21:06:46.444Z,10.40
2022-10-05T21:08:51.539Z,10.42
2022-10-05T21:10:54.314Z,10.43
2022-10-05T21:12:57.037Z,10.44
2022-10-05T21:15:00.222Z,10.43
2022-10-05T21:17:03.895Z,10.47
2022-10-05T21:19:14.173Z,10.47
2022-10-05T21:21:17.994Z,10.44
2022-10-05T21:23:20.673Z,10.46
2022-10-05T21:25:23.570Z,10.46
2022-10-05T21:27:26.281Z,10.48
2022-10-05T21:29:29.523Z,10.51
2022-10-05T21:31:32.248Z,10.51
2022-10-05T21:33:35.491Z,10.52
2022-10-05T21:35:38.202Z,10.52
2022-10-05T21:37:40.834Z,10.54
2022-10-05T21:39:43.492Z,10.55
2022-10-05T21:41:49.604Z,10.56
2022-10-05T21:43:52.952Z,10.59
2022-10-05T21:45:56.426Z,10.58
2022-10-05T21:47:59.355Z,10.58
2022-10-05T21:50:03.957Z,10.64
2022-10-05T21:52:07.324Z,10.62
2022-10-05T21:54:14.071Z,10.62
2022-10-05T21:56:20.601Z,10.63
2022-10-05T21:58:24.139Z,10.55
2022-10-05T22:00:26.861Z,10.65
2022-10-05T22:02:29.558Z,10.65
2022-10-05T22:04:32.250Z,10.65
2022-10-05T22:06:36.438Z,10.63
2022-10-05T22:08:39.419Z,10.65
2022-10-05T22:10:43.452Z,10.65
2022-10-05T22:12:47.666Z,10.66
2022-10-05T22:14:50.334Z,10.65
2022-10-05T22:16:53.461Z,10.66
2022-10-05T22:18:56.208Z,10.66
2022-10-05T22:20:58.843Z,10.65
2022-10-05T22:23:01.483Z,10.62
2022-10-05T22:25:04.645Z,10.62
2022-10-05T22:27:07.650Z,10.64
2022-10-05T22:29:13.979Z,10.58
2022-10-05T22:31:18.402Z,10.64
2022-10-05T22:33:21.050Z,10.66
2022-10-05T22:35:23.895Z,10.64
2022-10-05T22:37:26.623Z,10.63
2022-10-05T22:39:29.317Z,10.65
2022-10-05T22:41:32.124Z,10.67
2022-10-05T22:43:34.713Z,10.65
2022-10-05T22:45:37.463Z,10.66
2022-10-05T22:47:41.589Z,10.59
2022-10-05T22:49:44.261Z,10.58
2022-10-05T22:51:48.350Z,10.58
2022-10-05T22:53:51.081Z,10.57
2022-10-05T22:55:53.696Z,10.57
2022-10-05T22:57:56.428Z,10.56
2022-10-05T22:59:59.067Z,10.57
2022-10-05T23:02:01.894Z,10.57
2022-10-05T23:04:05.004Z,10.55
2022-10-05T23:06:10.639Z,10.54
2022-10-05T23:08:13.369Z,10.55
2022-10-05T23:10:18.467Z,10.53
2022-10-05T23:12:21.108Z,10.50
2022-10-05T23:14:23.914Z,10.51
2022-10-05T23:16:28.399Z,10.48
2022-10-05T23:18:32.091Z,10.50
2022-10-05T23:20:34.943Z,10.53
2022-10-05T23:22:38.804Z,10.55
2022-10-05T23:24:41.471Z,10.53
2022-10-05T23:26:44.133Z,10.55
2022-10-05T23:28:48.169Z,10.56
2022-10-05T23:30:50.907Z,10.58
2022-10-05T23:32:53.577Z,10.64
2022-10-05T23:34:56.661Z,10.68
2022-10-05T23:36:59.366Z,10.67
2022-10-05T23:39:02.185Z,10.61
2022-10-05T23:41:05.882Z,10.63
2022-10-05T23:43:08.544Z,10.62
2022-10-05T23:45:12.247Z,10.62
2022-10-05T23:47:14.819Z,10.65
2022-10-05T23:49:17.547Z,10.67
2022-10-05T23:51:20.568Z,10.66
2022-10-05T23:53:23.821Z,10.67
2022-10-05T23:55:26.414Z,10.66
2022-10-05T23:57:29.075Z,10.68
2022-10-05T23:59:31.837Z,10.64
